createdAt,value
2022-12-27T00:00:47.406Z,25.58
2022-12-27T00:03:14.025Z,25.62
2022-12-27T00:05:43.971Z,25.53
2022-12-27T00:08:10.822Z,25.53
2022-12-27T00:10:37.222Z,25.48
2022-12-27T00:13:03.696Z,25.56
2022-12-27T00:15:30.124Z,25.48
2022-12-27T00:17:56.558Z,25.57
2022-12-27T00:20:22.957Z,25.51
2022-12-27T00:22:49.373Z,25.54
2022-12-27T00:25:15.913Z,25.53
2022-12-27T00:27:42.450Z,25.53
2022-12-27T00:30:09.062Z,25.51
2022-12-27T00:32:35.438Z,25.57
2022-12-27T00:35:04.254Z,25.62
2022-12-27T00:37:30.688Z,25.61
2022-12-27T00:39:57.110Z,25.61
2022-12-27T00:42:23.498Z,25.51
2022-12-27T00:44:50.032Z,25.51
2022-12-27T00:47:16.558Z,25.53
2022-12-27T00:49:42.982Z,25.58
2022-12-27T00:52:09.415Z,25.52
2022-12-27T00:54:35.893Z,25.58
2022-12-27T00:57:02.457Z,25.54
2022-12-27T00:59:28.923Z,25.57
2022-12-27T01:01:55.679Z,25.56
2022-12-27T01:04:22.208Z,25.62
2022-12-27T01:06:48.624Z,25.54
2022-12-27T01:09:15.090Z,25.61
2022-12-27T01:11:41.725Z,25.52
2022-12-27T01:14:08.196Z,25.52
2022-12-27T01:16:34.784Z,25.45
2022-12-27T01:19:01.353Z,25.54
2022-12-27T01:21:30.765Z,25.46
2022-12-27T01:23:57.550Z,25.56
2022-12-27T01:26:24.242Z,25.50
2022-12-27T01:28:52.597Z,25.57
2022-12-27T01:31:23.259Z,25.48
2022-12-27T01:33:49.763Z,25.64
2022-12-27T01:36:17.841Z,25.65
2022-12-27T01:38:44.393Z,25.72
2022-12-27T01:41:33.432Z,25.61
2022-12-27T01:43:59.944Z,25.67
2022-12-27T01:46:26.358Z,25.62
2022-12-27T01:48:52.815Z,25.64
2022-12-27T01:51:19.209Z,25.67
2022-12-27T01:53:46.198Z,25.69
2022-12-27T01:56:17.097Z,25.59
2022-12-27T01:58:47.858Z,25.64
2022-12-27T02:01:18.206Z,25.59
2022-12-27T02:03:54.513Z,25.64
2022-12-27T02:06:20.967Z,25.52
2022-12-27T02:08:58.015Z,25.61
2022-12-27T02:11:46.843Z,25.62
2022-12-27T02:14:13.318Z,25.69
2022-12-27T02:16:39.782Z,25.64
2022-12-27T02:19:07.567Z,25.63
2022-12-27T02:21:52.255Z,25.61
2022-12-27T02:24:21.716Z,25.67
2022-12-27T02:27:02.158Z,25.64
2022-12-27T02:29:37.705Z,25.69
2022-12-27T02:32:27.689Z,25.69
2022-12-27T02:35:04.398Z,25.63
2022-12-27T02:37:32.059Z,25.69
2022-12-27T02:40:18.923Z,25.67
2022-12-27T02:43:04.675Z,25.74
2022-12-27T02:45:50.164Z,25.72
2022-12-27T02:48:35.564Z,25.76
2022-12-27T02:51:20.869Z,25.69
2022-12-27T02:53:47.246Z,25.76
2022-12-27T02:56:32.456Z,25.70
2022-12-27T02:59:19.288Z,25.69
2022-12-27T03:02:23.526Z,25.66
2022-12-27T03:04:59.386Z,25.60
2022-12-27T03:07:45.238Z,25.44
2022-12-27T03:10:37.169Z,25.25
2022-12-27T03:13:39.073Z,25.09
2022-12-27T03:16:24.264Z,24.79
2022-12-27T03:18:50.719Z,24.59
2022-12-27T03:21:54.795Z,24.29
2022-12-27T03:24:41.389Z,24.13
2022-12-27T03:27:18.425Z,24.00
2022-12-27T03:30:10.601Z,23.84
2022-12-27T03:33:07.535Z,23.70
2022-12-27T03:35:35.206Z,23.53
2022-12-27T03:38:05.078Z,23.33
2022-12-27T03:40:38.994Z,23.11
2022-12-27T03:43:10.933Z,23.04
2022-12-27T03:46:16.468Z,23.14
2022-12-27T03:49:01.640Z,23.22
2022-12-27T03:51:28.338Z,23.43
2022-12-27T03:53:56.606Z,23.84
2022-12-27T03:56:23.135Z,24.69
2022-12-27T03:58:49.591Z,25.93
2022-12-27T04:01:16.106Z,27.02
2022-12-27T04:03:42.783Z,28.00
2022-12-27T04:06:09.203Z,28.69
2022-12-27T04:08:54.548Z,29.06
2022-12-27T04:11:39.524Z,29.31
2022-12-27T04:14:24.623Z,29.48
2022-12-27T04:17:09.715Z,29.60
2022-12-27T04:19:54.625Z,29.71
2022-12-27T04:22:39.521Z,29.73
2022-12-27T04:25:24.911Z,29.87
2022-12-27T04:28:10.252Z,29.95
2022-12-27T04:30:55.159Z,30.03
2022-12-27T04:33:40.153Z,30.15
2022-12-27T04:36:06.806Z,30.26
2022-12-27T04:38:33.236Z,30.33
2022-12-27T04:41:18.424Z,30.39
2022-12-27T04:44:03.698Z,30.46
2022-12-27T04:46:48.623Z,30.52
2022-12-27T04:49:36.747Z,30.60
2022-12-27T04:52:21.671Z,30.62
2022-12-27T04:54:56.970Z,30.64
2022-12-27T04:57:23.735Z,30.67
2022-12-27T05:00:08.564Z,30.70
2022-12-27T05:02:35.276Z,30.71
2022-12-27T05:05:01.955Z,30.73
2022-12-27T05:07:47.000Z,30.76
2022-12-27T05:10:32.024Z,30.75
2022-12-27T05:13:16.879Z,30.77
2022-12-27T05:15:43.300Z,30.79
2022-12-27T05:18:09.752Z,30.79
2022-12-27T05:20:36.190Z,30.84
2022-12-27T05:23:21.136Z,30.83
2022-12-27T05:25:47.605Z,30.86
2022-12-27T05:28:14.029Z,30.86
2022-12-27T05:30:41.363Z,30.86
2022-12-27T05:33:07.930Z,30.87
2022-12-27T05:35:34.643Z,30.87
2022-12-27T05:38:01.278Z,30.85
2022-12-27T05:40:27.703Z,30.87
2022-12-27T05:42:54.155Z,30.90
2022-12-27T05:45:20.811Z,30.89
2022-12-27T05:47:47.688Z,30.91
2022-12-27T05:50:14.124Z,30.92
2022-12-27T05:52:41.438Z,30.93
2022-12-27T05:55:08.382Z,30.92
2022-12-27T05:57:37.606Z,30.90
2022-12-27T06:00:04.765Z,30.91
2022-12-27T06:02:31.392Z,30.93
2022-12-27T06:04:57.961Z,30.94
2022-12-27T06:07:24.376Z,30.95
2022-12-27T06:09:50.845Z,30.95
2022-12-27T06:12:17.262Z,30.96
2022-12-27T06:14:43.695Z,30.96
2022-12-27T06:17:10.115Z,30.95
2022-12-27T06:19:36.609Z,30.94
2022-12-27T06:22:03.072Z,30.95
2022-12-27T06:24:29.522Z,30.95
2022-12-27T06:26:55.980Z,30.95
2022-12-27T06:29:22.394Z,30.96
2022-12-27T06:31:49.064Z,30.90
2022-12-27T06:34:15.532Z,30.68
2022-12-27T06:36:41.947Z,30.57
2022-12-27T06:39:08.333Z,30.42
2022-12-27T06:41:34.762Z,30.26
2022-12-27T06:44:01.184Z,30.08
2022-12-27T06:46:27.630Z,29.84
2022-12-27T06:48:54.163Z,29.61
2022-12-27T06:51:20.700Z,29.39
2022-12-27T06:53:47.501Z,29.18
2022-12-27T06:56:16.895Z,28.96
2022-12-27T06:58:43.384Z,28.69
2022-12-27T07:01:13.715Z,28.37
2022-12-27T07:03:40.420Z,28.06
2022-12-27T07:06:07.691Z,27.91
2022-12-27T07:08:35.014Z,27.94
2022-12-27T07:11:01.997Z,28.04
2022-12-27T07:13:28.491Z,28.25
2022-12-27T07:15:54.953Z,28.68
2022-12-27T07:18:21.646Z,29.31
2022-12-27T07:20:48.129Z,29.88
2022-12-27T07:23:19.206Z,30.02
2022-12-27T07:25:46.116Z,29.99
2022-12-27T07:28:12.589Z,29.94
2022-12-27T07:30:39.663Z,29.95
2022-12-27T07:33:06.064Z,29.93
2022-12-27T07:35:32.457Z,29.96
2022-12-27T07:37:58.906Z,29.99
2022-12-27T07:40:25.739Z,29.95
2022-12-27T07:42:52.151Z,29.98
2022-12-27T07:45:18.600Z,29.99
2022-12-27T07:47:44.990Z,30.01
2022-12-27T07:50:11.440Z,29.94
2022-12-27T07:52:38.884Z,29.88
2022-12-27T07:55:05.506Z,29.85
2022-12-27T07:57:31.936Z,29.78
2022-12-27T07:59:58.381Z,29.71
2022-12-27T08:02:24.971Z,29.67
2022-12-27T08:04:51.537Z,29.59
2022-12-27T08:07:18.501Z,29.58
2022-12-27T08:09:45.665Z,29.57
2022-12-27T08:12:13.636Z,29.59
2022-12-27T08:14:40.288Z,29.49
2022-12-27T08:17:07.646Z,29.48
2022-12-27T08:19:34.468Z,29.38
2022-12-27T08:22:00.915Z,29.32
2022-12-27T08:24:27.346Z,29.34
2022-12-27T08:26:53.769Z,29.33
2022-12-27T08:29:20.187Z,29.28
2022-12-27T08:31:46.570Z,29.19
2022-12-27T08:34:13.074Z,29.21
2022-12-27T08:36:55.209Z,29.22
2022-12-27T08:39:22.221Z,29.18
2022-12-27T08:41:48.649Z,29.16
2022-12-27T08:44:15.065Z,29.21
2022-12-27T08:46:41.604Z,29.17
2022-12-27T08:49:08.033Z,29.15
2022-12-27T08:51:40.879Z,29.22
2022-12-27T08:54:07.821Z,29.19
2022-12-27T08:56:34.350Z,29.18
2022-12-27T08:59:00.856Z,29.22
2022-12-27T09:01:27.444Z,29.24
2022-12-27T09:03:53.979Z,29.20
2022-12-27T09:06:21.153Z,29.25
2022-12-27T09:08:47.996Z,29.24
2022-12-27T09:11:15.290Z,29.27
2022-12-27T09:13:41.825Z,29.33
2022-12-27T09:16:08.954Z,29.36
2022-12-27T09:18:35.398Z,29.36
2022-12-27T09:21:05.405Z,29.36
2022-12-27T09:23:31.850Z,29.42
2022-12-27T09:25:58.247Z,29.48
2022-12-27T09:28:24.776Z,29.55
2022-12-27T09:30:51.293Z,29.64
2022-12-27T09:33:17.731Z,29.99
2022-12-27T09:35:44.536Z,30.20
2022-12-27T09:38:10.991Z,30.42
2022-12-27T09:40:37.550Z,30.30
2022-12-27T09:43:21.034Z,30.31
2022-12-27T09:45:51.563Z,30.33
2022-12-27T09:48:26.199Z,30.31
2022-12-27T09:50:57.124Z,30.25
2022-12-27T09:53:42.546Z,30.32
2022-12-27T09:56:09.007Z,30.51
2022-12-27T09:58:35.419Z,30.49
2022-12-27T10:01:02.022Z,30.53
2022-12-27T10:03:28.560Z,30.57
2022-12-27T10:06:08.884Z,30.64
2022-12-27T10:08:41.355Z,30.59
2022-12-27T10:11:30.211Z,30.87
2022-12-27T10:13:57.481Z,30.85
2022-12-27T10:16:32.846Z,31.01
2022-12-27T10:19:22.648Z,31.26
2022-12-27T10:21:54.979Z,31.40
2022-12-27T10:24:24.038Z,31.46
2022-12-27T10:26:50.928Z,31.55
2022-12-27T10:29:19.280Z,31.58
2022-12-27T10:31:45.730Z,31.49
2022-12-27T10:34:13.997Z,31.44
2022-12-27T10:36:40.740Z,31.30
2022-12-27T10:39:39.710Z,31.10
2022-12-27T10:42:24.822Z,30.90
2022-12-27T10:44:51.463Z,30.60
2022-12-27T10:47:17.840Z,30.25
2022-12-27T10:49:44.846Z,29.85
2022-12-27T10:52:21.673Z,29.57
2022-12-27T10:54:54.978Z,29.30
2022-12-27T10:57:26.112Z,28.96
2022-12-27T11:00:08.054Z,28.57
2022-12-27T11:02:34.536Z,28.27
2022-12-27T11:05:01.226Z,28.18
2022-12-27T11:07:31.427Z,28.25
2022-12-27T11:10:05.048Z,28.34
2022-12-27T11:12:33.022Z,28.48
2022-12-27T11:15:00.502Z,28.81
2022-12-27T11:17:37.425Z,29.22
2022-12-27T11:20:24.189Z,29.56
2022-12-27T11:22:59.815Z,29.59
2022-12-27T11:25:26.879Z,29.60
2022-12-27T11:27:55.739Z,29.56
2022-12-27T11:30:26.967Z,29.51
2022-12-27T11:32:53.400Z,29.53
2022-12-27T11:35:20.281Z,29.47
2022-12-27T11:37:47.047Z,29.46
2022-12-27T11:40:35.870Z,29.44
2022-12-27T11:43:06.281Z,29.42
2022-12-27T11:45:37.545Z,29.45
2022-12-27T11:48:06.237Z,29.49
2022-12-27T11:50:32.711Z,29.52
2022-12-27T11:53:07.314Z,29.50
2022-12-27T11:55:38.376Z,29.46
2022-12-27T11:58:23.548Z,29.46
2022-12-27T12:00:53.812Z,29.41
2022-12-27T12:03:26.465Z,29.40
2022-12-27T12:06:02.289Z,29.40
2022-12-27T12:08:35.115Z,29.35
2022-12-27T12:11:10.463Z,29.31
2022-12-27T12:13:36.824Z,29.31
2022-12-27T12:16:08.718Z,29.30
2022-12-27T12:18:45.232Z,29.27
2022-12-27T12:21:14.897Z,29.24
2022-12-27T12:23:41.278Z,29.27
2022-12-27T12:26:11.591Z,29.28
2022-12-27T12:28:58.146Z,29.25
2022-12-27T12:31:25.358Z,29.28
2022-12-27T12:33:51.796Z,29.27
2022-12-27T12:36:37.088Z,29.27
2022-12-27T12:39:06.698Z,29.25
2022-12-27T12:41:51.962Z,29.22
2022-12-27T12:44:21.351Z,29.23
2022-12-27T12:46:53.020Z,29.21
2022-12-27T12:49:31.784Z,29.21
2022-12-27T12:52:01.426Z,29.19
2022-12-27T12:54:43.223Z,29.17
2022-12-27T12:57:19.631Z,29.18
2022-12-27T13:00:04.989Z,29.21
2022-12-27T13:02:50.576Z,29.19
2022-12-27T13:05:29.609Z,29.23
2022-12-27T13:08:14.180Z,29.25
2022-12-27T13:10:46.828Z,29.24
2022-12-27T13:13:22.331Z,29.28
2022-12-27T13:15:52.330Z,29.31
2022-12-27T13:18:28.384Z,29.31
2022-12-27T13:21:03.885Z,29.30
2022-12-27T13:23:30.283Z,29.34
2022-12-27T13:26:02.840Z,29.35
2022-12-27T13:28:29.377Z,29.36
2022-12-27T13:30:55.873Z,29.42
2022-12-27T13:33:28.441Z,29.45
2022-12-27T13:36:13.736Z,29.44
2022-12-27T13:38:40.117Z,29.41
2022-12-27T13:41:30.547Z,29.46
2022-12-27T13:44:07.343Z,29.43
2022-12-27T13:46:52.303Z,29.45
2022-12-27T13:49:18.685Z,29.50
2022-12-27T13:51:45.763Z,29.53
2022-12-27T13:54:30.935Z,29.51
2022-12-27T13:57:00.523Z,29.50
2022-12-27T13:59:31.025Z,29.52
2022-12-27T14:02:03.594Z,29.51
2022-12-27T14:04:30.102Z,29.53
2022-12-27T14:07:26.030Z,29.49
2022-12-27T14:10:11.826Z,29.53
2022-12-27T14:13:16.585Z,29.59
2022-12-27T14:15:43.240Z,29.57
2022-12-27T14:18:12.397Z,29.47
2022-12-27T14:20:41.571Z,29.34
2022-12-27T14:23:20.354Z,29.19
2022-12-27T14:25:53.073Z,29.00
2022-12-27T14:28:21.303Z,28.77
2022-12-27T14:31:06.422Z,28.56
2022-12-27T14:33:32.885Z,28.40
2022-12-27T14:36:03.719Z,28.16
2022-12-27T14:38:49.192Z,27.84
2022-12-27T14:41:34.425Z,27.60
2022-12-27T14:44:03.963Z,27.62
2022-12-27T14:46:44.851Z,27.74
2022-12-27T14:49:30.242Z,28.02
2022-12-27T14:52:13.710Z,28.66
2022-12-27T14:54:46.423Z,29.62
2022-12-27T14:57:12.827Z,30.24
2022-12-27T15:00:00.816Z,30.51
2022-12-27T15:02:43.095Z,30.50
2022-12-27T15:05:09.689Z,30.32
2022-12-27T15:07:42.361Z,30.23
2022-12-27T15:10:13.076Z,30.17
2022-12-27T15:12:43.254Z,30.09
2022-12-27T15:15:15.693Z,30.12
2022-12-27T15:17:48.127Z,30.18
2022-12-27T15:20:33.479Z,30.22
2022-12-27T15:23:07.038Z,30.32
2022-12-27T15:25:46.803Z,30.30
2022-12-27T15:28:15.683Z,30.37
2022-12-27T15:31:00.908Z,30.42
2022-12-27T15:34:02.900Z,30.44
2022-12-27T15:36:42.331Z,30.47
2022-12-27T15:39:27.330Z,30.52
2022-12-27T15:41:58.854Z,30.57
2022-12-27T15:44:44.888Z,30.57
2022-12-27T15:47:30.124Z,30.54
2022-12-27T15:50:02.682Z,30.44
2022-12-27T15:52:48.027Z,30.46
2022-12-27T15:55:21.683Z,30.45
2022-12-27T15:58:07.802Z,30.43
2022-12-27T16:00:34.766Z,30.48
2022-12-27T16:03:01.876Z,30.50
2022-12-27T16:05:40.398Z,30.54
2022-12-27T16:08:06.804Z,30.57
2022-12-27T16:10:42.017Z,30.60
2022-12-27T16:13:11.500Z,30.65
2022-12-27T16:15:44.949Z,30.63
2022-12-27T16:18:31.653Z,30.68
2022-12-27T16:21:02.698Z,30.68
2022-12-27T16:23:33.275Z,30.70
2022-12-27T16:26:09.731Z,30.70
2022-12-27T16:28:36.519Z,30.73
2022-12-27T16:31:03.372Z,30.76
2022-12-27T16:33:35.862Z,30.77
2022-12-27T16:36:14.381Z,30.74
2022-12-27T16:39:06.953Z,30.73
2022-12-27T16:41:36.308Z,30.72
2022-12-27T16:44:04.745Z,30.74
2022-12-27T16:46:40.315Z,30.78
2022-12-27T16:49:23.209Z,30.83
2022-12-27T16:51:55.922Z,30.85
2022-12-27T16:54:36.752Z,30.87
2022-12-27T16:57:21.361Z,30.91
2022-12-27T17:00:20.339Z,30.87
2022-12-27T17:02:47.092Z,30.89
2022-12-27T17:05:16.337Z,30.92
2022-12-27T17:07:58.006Z,30.97
2022-12-27T17:10:27.496Z,31.02
2022-12-27T17:12:54.702Z,31.03
2022-12-27T17:15:21.134Z,30.99
2022-12-27T17:17:47.598Z,31.02
2022-12-27T17:20:17.587Z,31.08
2022-12-27T17:22:44.001Z,31.09
2022-12-27T17:25:14.391Z,31.02
2022-12-27T17:27:40.776Z,31.04
2022-12-27T17:30:07.490Z,31.03
2022-12-27T17:32:37.106Z,31.07
2022-12-27T17:35:03.500Z,31.09
2022-12-27T17:37:32.809Z,31.07
2022-12-27T17:39:59.265Z,31.15
2022-12-27T17:42:50.236Z,31.11
2022-12-27T17:45:34.916Z,31.12
2022-12-27T17:48:23.103Z,31.20
2022-12-27T17:50:49.672Z,31.19
2022-12-27T17:53:35.345Z,31.10
2022-12-27T17:56:22.243Z,31.06
2022-12-27T17:58:48.652Z,30.98
2022-12-27T18:01:15.277Z,30.76
2022-12-27T18:03:44.991Z,30.49
2022-12-27T18:06:11.516Z,30.13
2022-12-27T18:08:38.634Z,29.70
2022-12-27T18:11:05.365Z,29.21
2022-12-27T18:13:32.763Z,28.86
2022-12-27T18:15:59.172Z,28.40
2022-12-27T18:18:29.441Z,27.94
2022-12-27T18:20:59.821Z,27.16
2022-12-27T18:23:26.394Z,27.01
2022-12-27T18:25:53.903Z,27.33
2022-12-27T18:28:20.295Z,27.49
2022-12-27T18:31:02.201Z,27.72
2022-12-27T18:33:39.189Z,28.33
2022-12-27T18:36:06.060Z,29.37
2022-12-27T18:38:38.030Z,30.28
2022-12-27T18:41:30.664Z,30.90
2022-12-27T18:43:59.760Z,31.02
2022-12-27T18:46:33.662Z,30.82
2022-12-27T18:49:00.132Z,30.72
2022-12-27T18:51:33.204Z,30.69
2022-12-27T18:53:59.675Z,30.75
2022-12-27T18:56:27.255Z,30.74
2022-12-27T18:59:00.078Z,30.77
2022-12-27T19:01:26.589Z,30.78
2022-12-27T19:04:19.299Z,30.78
2022-12-27T19:06:53.526Z,30.86
2022-12-27T19:09:20.044Z,30.90
2022-12-27T19:11:51.134Z,30.89
2022-12-27T19:14:17.504Z,30.88
2022-12-27T19:16:47.647Z,30.91
2022-12-27T19:19:16.592Z,30.95
2022-12-27T19:21:43.030Z,30.99
2022-12-27T19:24:28.162Z,31.01
2022-12-27T19:26:55.011Z,31.03
2022-12-27T19:29:22.234Z,31.06
2022-12-27T19:31:56.763Z,31.08
2022-12-27T19:34:23.466Z,31.11
2022-12-27T19:36:49.872Z,31.06
2022-12-27T19:39:23.820Z,31.04
2022-12-27T19:41:50.363Z,31.07
2022-12-27T19:44:16.974Z,31.16
2022-12-27T19:46:43.359Z,31.17
2022-12-27T19:51:56.302Z,31.18
2022-12-27T19:54:22.986Z,31.20
2022-12-27T19:56:49.649Z,31.19
2022-12-27T19:59:16.890Z,31.21
2022-12-27T20:01:43.515Z,30.88
2022-12-27T20:04:10.030Z,30.27
2022-12-27T20:06:36.500Z,29.46
2022-12-27T20:09:03.140Z,28.55
2022-12-27T20:11:29.539Z,27.80
2022-12-27T20:13:56.002Z,27.00
2022-12-27T20:16:25.542Z,26.40
2022-12-27T20:18:52.049Z,25.86
2022-12-27T20:21:18.769Z,25.73
2022-12-27T20:23:45.447Z,25.44
2022-12-27T20:26:12.924Z,25.50
2022-12-27T20:28:39.297Z,25.31
2022-12-27T20:31:06.953Z,25.33
2022-12-27T20:33:33.384Z,25.88
2022-12-27T20:36:02.150Z,26.13
2022-12-27T20:38:28.627Z,26.45
2022-12-27T20:40:55.019Z,26.64
2022-12-27T20:43:23.747Z,26.15
2022-12-27T20:45:50.296Z,26.21
2022-12-27T20:48:16.897Z,26.05
2022-12-27T20:50:43.313Z,26.30
2022-12-27T20:53:09.857Z,26.12
2022-12-27T20:55:36.367Z,26.34
2022-12-27T20:58:02.929Z,26.07
2022-12-27T21:00:29.397Z,26.10
2022-12-27T21:02:55.990Z,25.90
2022-12-27T21:05:22.577Z,26.00
2022-12-27T21:07:49.702Z,25.91
2022-12-27T21:10:16.126Z,26.08
2022-12-27T21:12:42.656Z,25.80
2022-12-27T21:15:09.313Z,25.86
2022-12-27T21:17:35.813Z,25.80
2022-12-27T21:20:02.353Z,26.02
2022-12-27T21:22:28.752Z,25.75
2022-12-27T21:24:55.248Z,25.91
2022-12-27T21:27:21.629Z,25.69
2022-12-27T21:29:48.059Z,25.84
2022-12-27T21:32:14.625Z,25.72
2022-12-27T21:34:41.285Z,25.88
2022-12-27T21:37:12.979Z,25.85
2022-12-27T21:39:40.007Z,25.96
2022-12-27T21:42:06.473Z,25.65
2022-12-27T21:44:35.368Z,25.74
2022-12-27T21:47:01.811Z,25.90
2022-12-27T21:49:28.211Z,25.96
2022-12-27T21:51:57.454Z,26.17
2022-12-27T21:54:23.882Z,26.05
2022-12-27T21:56:50.302Z,26.14
2022-12-27T21:59:16.715Z,26.04
2022-12-27T22:01:50.045Z,26.22
2022-12-27T22:04:18.658Z,26.23
2022-12-27T22:06:47.337Z,26.36
2022-12-27T22:09:14.510Z,26.10
2022-12-27T22:11:41.091Z,26.13
2022-12-27T22:14:07.761Z,26.04
2022-12-27T22:16:35.116Z,26.35
2022-12-27T22:19:01.725Z,26.22
2022-12-27T22:21:29.655Z,26.37
2022-12-27T22:23:56.634Z,26.18
2022-12-27T22:26:23.942Z,26.47
2022-12-27T22:28:50.443Z,26.41
2022-12-27T22:31:20.775Z,26.55
2022-12-27T22:33:47.601Z,26.26
2022-12-27T22:36:14.887Z,26.37
2022-12-27T22:38:41.471Z,26.18
2022-12-27T22:41:11.725Z,26.32
2022-12-27T22:43:38.383Z,26.25
2022-12-27T22:46:05.459Z,26.24
2022-12-27T22:48:31.914Z,26.32
2022-12-27T22:50:58.362Z,26.49
2022-12-27T22:53:24.793Z,26.33
2022-12-27T22:55:51.231Z,26.32
2022-12-27T22:58:17.636Z,26.40
2022-12-27T23:00:44.086Z,26.43
2022-12-27T23:03:10.509Z,26.46
2022-12-27T23:05:36.916Z,26.57
2022-12-27T23:08:07.031Z,26.44
2022-12-27T23:10:33.863Z,26.55
2022-12-27T23:13:00.271Z,26.51
2022-12-27T23:15:26.723Z,26.60
2022-12-27T23:17:53.221Z,26.70
2022-12-27T23:20:19.734Z,26.41
2022-12-27T23:22:48.034Z,26.64
2022-12-27T23:25:14.604Z,26.50
2022-12-27T23:27:43.790Z,26.46
2022-12-27T23:30:10.619Z,26.37
2022-12-27T23:32:37.001Z,26.60
2022-12-27T23:35:03.507Z,26.52
2022-12-27T23:37:29.948Z,26.63
2022-12-27T23:39:56.372Z,26.61
2022-12-27T23:42:22.811Z,26.51
2022-12-27T23:44:49.217Z,26.55
2022-12-27T23:47:15.631Z,26.46
2022-12-27T23:49:42.109Z,26.52
2022-12-27T23:52:08.598Z,26.58
2022-12-27T23:54:35.030Z,26.54
2022-12-27T23:57:20.420Z,26.63
2022-12-27T23:59:49.296Z,26.65
